Time;durP1;ratioP1;P1;durP2;ratioP2;P2;SDS_P1;SDS_P2;PMS_P1;PMS_P2;Temp;Humidity;BMP_temperature;BMP_pressure;BME280_temperature;BME280_humidity;BME280_pressure;Samples;Min_cycle;Max_cycle;Signal;HPM_P1;HPM_P2
2022/01/29 00:00:59;;;;;;;12.77;7.47;;;3.40;99.90;;;;;;4982814;28;20039;-79
2022/01/29 00:03:30;;;;;;;13.55;7.55;;;3.50;99.90;;;;;;4985492;28;20066;-80
2022/01/29 00:05:58;;;;;;;13.25;7.65;;;3.50;99.90;;;;;;4985265;28;20115;-79
2022/01/29 00:08:24;;;;;;;14.40;8.13;;;3.40;99.90;;;;;;4983990;28;20042;-79
2022/01/29 00:10:54;;;;;;;14.18;8.27;;;3.40;99.90;;;;;;4952470;29;20059;-78
2022/01/29 00:13:20;;;;;;;15.32;8.65;;;3.40;99.90;;;;;;4929877;29;20028;-80
2022/01/29 00:15:46;;;;;;;12.30;8.15;;;3.40;99.90;;;;;;4945538;29;20027;-80
2022/01/29 00:18:11;;;;;;;12.93;8.15;;;3.40;99.90;;;;;;4946534;29;20046;-78
2022/01/29 00:20:38;;;;;;;14.18;8.15;;;3.40;99.90;;;;;;4929676;29;20082;-80
2022/01/29 00:23:04;;;;;;;13.90;7.50;;;3.30;99.90;;;;;;4945249;29;20039;-79
2022/01/29 00:25:30;;;;;;;15.15;8.02;;;3.40;99.90;;;;;;4946113;29;20173;-79
2022/01/29 00:27:57;;;;;;;12.48;7.70;;;3.30;99.90;;;;;;4929169;29;20076;-79
2022/01/29 00:30:30;;;;;;;13.27;7.47;;;3.40;99.90;;;;;;4953719;29;20030;-79
2022/01/29 00:32:56;;;;;;;15.73;7.75;;;3.40;99.90;;;;;;4928790;29;20036;-80
2022/01/29 00:35:25;;;;;;;12.90;6.97;;;3.50;99.90;;;;;;4946056;29;20302;-79
2022/01/29 00:37:50;;;;;;;12.63;7.57;;;3.50;99.90;;;;;;4945329;29;20062;-80
2022/01/29 00:40:16;;;;;;;11.13;6.95;;;3.50;99.90;;;;;;4946001;29;20042;-78
2022/01/29 00:42:42;;;;;;;14.65;7.30;;;3.50;99.90;;;;;;4929410;29;20035;-78
2022/01/29 00:45:08;;;;;;;11.60;6.18;;;3.60;99.90;;;;;;4912647;29;20079;-79
2022/01/29 00:47:34;;;;;;;10.30;5.88;;;3.50;99.90;;;;;;4915032;29;20318;-78
2022/01/29 00:49:59;;;;;;;13.93;6.53;;;3.50;99.90;;;;;;4964900;29;20034;-78
2022/01/29 00:52:25;;;;;;;12.13;6.88;;;3.40;99.90;;;;;;4951992;29;20127;-79
2022/01/29 00:54:52;;;;;;;11.27;5.80;;;3.40;99.90;;;;;;4945529;29;20116;-78
2022/01/29 00:57:18;;;;;;;14.00;6.65;;;3.50;99.90;;;;;;4928641;29;20031;-79
2022/01/29 00:59:44;;;;;;;12.32;6.50;;;3.50;99.90;;;;;;4912904;29;20306;-79
2022/01/29 01:02:11;;;;;;;9.93;5.70;;;3.50;99.90;;;;;;4945776;29;20031;-79
2022/01/29 01:04:39;;;;;;;10.18;5.30;;;3.50;99.90;;;;;;4928356;29;20242;-78
2022/01/29 01:07:07;;;;;;;10.80;5.90;;;3.50;99.90;;;;;;4912975;29;20039;-79
2022/01/29 01:09:33;;;;;;;11.60;5.57;;;3.40;99.90;;;;;;4927853;29;20109;-79
2022/01/29 01:11:59;;;;;;;11.25;6.22;;;3.40;99.90;;;;;;4958998;29;20027;-79
2022/01/29 01:14:24;;;;;;;9.77;5.43;;;3.30;99.90;;;;;;4948011;29;20077;-80
2022/01/29 01:16:50;;;;;;;12.13;5.65;;;3.30;99.90;;;;;;4964144;29;20139;-81
2022/01/29 01:19:16;;;;;;;10.85;5.53;;;3.40;99.90;;;;;;4932587;29;20038;-79
2022/01/29 01:21:42;;;;;;;10.43;5.63;;;3.50;99.90;;;;;;4947440;29;20015;-77
2022/01/29 01:24:07;;;;;;;12.23;5.88;;;3.50;99.90;;;;;;4964597;29;20027;-78
2022/01/29 01:26:33;;;;;;;10.68;6.32;;;3.60;99.90;;;;;;4964778;29;20234;-78
2022/01/29 01:28:59;;;;;;;9.60;5.75;;;3.50;99.90;;;;;;4964072;29;20031;-80
2022/01/29 01:31:25;;;;;;;9.48;5.65;;;3.50;99.90;;;;;;4947347;29;20054;-82
2022/01/29 01:33:51;;;;;;;11.18;5.63;;;3.50;99.90;;;;;;4934398;29;20027;-77
2022/01/29 01:36:21;;;;;;;9.80;6.03;;;3.50;99.90;;;;;;4944108;29;20032;-77
2022/01/29 01:38:52;;;;;;;11.77;5.68;;;3.50;99.90;;;;;;4944021;29;20031;-80
2022/01/29 01:41:24;;;;;;;12.32;5.70;;;3.50;99.90;;;;;;4928286;29;20028;-79
2022/01/29 01:43:58;;;;;;;10.75;6.32;;;3.50;99.90;;;;;;4946322;29;20039;-79
2022/01/29 01:46:28;;;;;;;12.38;5.50;;;3.40;99.90;;;;;;4949318;29;20039;-80
2022/01/29 01:48:55;;;;;;;11.57;5.30;;;3.40;99.90;;;;;;4948406;29;20039;-79
2022/01/29 01:51:21;;;;;;;10.10;5.60;;;3.40;99.90;;;;;;4952244;29;20031;-76
2022/01/29 01:53:47;;;;;;;11.05;6.05;;;3.40;99.90;;;;;;4967933;28;20085;-78
2022/01/29 01:56:14;;;;;;;11.95;6.55;;;3.40;99.90;;;;;;4974080;28;20033;-79
2022/01/29 01:58:42;;;;;;;11.48;6.05;;;3.40;99.90;;;;;;4950790;29;20085;-79
2022/01/29 02:01:08;;;;;;;;;;;3.30;99.90;;;;;;4951658;29;20034;-78
2022/01/29 02:03:34;;;;;;;11.95;5.35;;;3.20;99.90;;;;;;4950904;29;19906;-80
2022/01/29 02:06:01;;;;;;;10.95;6.05;;;3.20;99.90;;;;;;4967602;29;20261;-80
2022/01/29 02:08:27;;;;;;;10.38;6.05;;;3.20;99.90;;;;;;4935128;28;20461;-79
2022/01/29 02:11:00;;;;;;;12.77;6.30;;;3.20;99.90;;;;;;4967877;29;20027;-79
2022/01/29 02:13:28;;;;;;;11.52;6.65;;;3.20;99.90;;;;;;4966566;29;20305;-80
2022/01/29 02:15:55;;;;;;;12.20;7.57;;;3.20;99.90;;;;;;4963920;29;20082;-80
2022/01/29 02:18:21;;;;;;;11.07;5.97;;;3.20;99.90;;;;;;4934928;29;20035;-80
2022/01/29 02:20:47;;;;;;;10.35;6.18;;;3.20;99.90;;;;;;4967839;29;20050;-79
2022/01/29 02:23:17;;;;;;;10.60;6.57;;;3.10;99.90;;;;;;4953446;29;20023;-80
2022/01/29 02:25:48;;;;;;;15.25;7.53;;;3.10;99.90;;;;;;4967078;29;20055;-81
2022/01/29 02:28:17;;;;;;;16.88;8.65;;;3.00;99.90;;;;;;4967767;29;20327;-80
2022/01/29 02:30:49;;;;;;;13.82;7.93;;;3.00;99.90;;;;;;4949895;29;20031;-79
2022/01/29 02:33:16;;;;;;;13.15;8.02;;;2.90;99.90;;;;;;4968118;29;20042;-79
2022/01/29 02:35:48;;;;;;;13.32;7.80;;;2.90;99.90;;;;;;4963266;28;20066;-79
2022/01/29 02:38:16;;;;;;;14.55;8.80;;;2.90;99.90;;;;;;4967335;29;20023;-79
2022/01/29 02:40:50;;;;;;;14.40;7.90;;;2.80;99.90;;;;;;4949923;29;20015;-80
2022/01/29 02:43:22;;;;;;;12.80;8.13;;;2.70;99.90;;;;;;4967734;29;20053;-80
2022/01/29 02:45:51;;;;;;;14.25;9.07;;;2.60;99.90;;;;;;4966865;29;20047;-80
2022/01/29 02:48:17;;;;;;;15.55;8.15;;;2.60;99.90;;;;;;4967493;29;20027;-78
2022/01/29 02:50:43;;;;;;;13.38;8.00;;;2.50;99.90;;;;;;4966743;29;20031;-79
2022/01/29 02:53:09;;;;;;;14.07;8.23;;;2.50;99.90;;;;;;4950117;29;20147;-77
2022/01/29 02:55:35;;;;;;;17.45;8.38;;;2.50;99.90;;;;;;4930089;29;20039;-79
2022/01/29 02:58:02;;;;;;;13.85;7.75;;;2.40;99.90;;;;;;4910840;29;20036;-80
2022/01/29 03:00:28;;;;;;;13.15;7.82;;;2.40;99.90;;;;;;4911586;29;20108;-80
2022/01/29 03:02:53;;;;;;;16.48;8.27;;;2.40;99.90;;;;;;4926665;29;20330;-79
2022/01/29 03:05:20;;;;;;;13.45;7.57;;;2.30;99.90;;;;;;4911328;29;20303;-78
2022/01/29 03:07:46;;;;;;;15.60;8.60;;;2.30;99.90;;;;;;4926508;29;20263;-79
2022/01/29 03:10:11;;;;;;;14.65;8.65;;;2.30;99.90;;;;;;4955450;29;20049;-78
2022/01/29 03:12:40;;;;;;;17.90;8.68;;;2.30;99.90;;;;;;4949114;29;20107;-78
2022/01/29 03:15:07;;;;;;;15.80;7.78;;;2.40;99.90;;;;;;4948878;29;20234;-80
2022/01/29 03:17:33;;;;;;;15.52;8.27;;;2.40;99.90;;;;;;4944381;29;20311;-80
2022/01/29 03:20:04;;;;;;;15.35;8.75;;;2.40;99.90;;;;;;4948248;29;20306;-80
2022/01/29 03:22:30;;;;;;;14.10;7.60;;;2.50;99.90;;;;;;4964916;29;20031;-80
2022/01/29 03:24:55;;;;;;;16.23;9.00;;;2.60;99.90;;;;;;4949013;29;20046;-80
2022/01/29 03:27:21;;;;;;;11.30;7.40;;;2.60;99.90;;;;;;4949207;29;20031;-79
2022/01/29 03:29:50;;;;;;;12.77;7.18;;;2.60;99.90;;;;;;4982835;28;20030;-78
2022/01/29 03:32:15;;;;;;;17.17;9.35;;;2.70;99.90;;;;;;4984467;28;20081;-79
2022/01/29 03:34:41;;;;;;;12.82;7.82;;;2.70;99.90;;;;;;4968677;28;20103;-78
2022/01/29 03:37:07;;;;;;;12.68;7.40;;;2.70;99.90;;;;;;4981921;28;20091;-79
2022/01/29 03:39:35;;;;;;;15.18;7.65;;;2.70;99.90;;;;;;4986388;28;20038;-81
2022/01/29 03:42:05;;;;;;;13.95;7.20;;;2.70;99.90;;;;;;4968241;28;20031;-79
2022/01/29 03:44:31;;;;;;;13.60;7.03;;;2.70;99.90;;;;;;4985651;28;20034;-81
2022/01/29 03:46:58;;;;;;;11.50;6.95;;;2.70;99.90;;;;;;4983490;28;20078;-80
2022/01/29 03:49:24;;;;;;;12.13;7.60;;;2.70;99.90;;;;;;4968090;28;20042;-80
2022/01/29 03:51:49;;;;;;;13.07;7.35;;;2.70;99.90;;;;;;4984857;28;20249;-79
2022/01/29 03:54:15;;;;;;;12.55;7.15;;;2.80;99.90;;;;;;4968087;28;20093;-80
2022/01/29 03:56:41;;;;;;;12.82;7.22;;;2.70;99.90;;;;;;4984860;28;20022;-79
2022/01/29 03:59:07;;;;;;;12.35;7.45;;;2.80;99.90;;;;;;4964451;28;20034;-80
2022/01/29 04:01:32;;;;;;;11.23;7.43;;;2.80;99.90;;;;;;4984038;28;20069;-80
2022/01/29 04:03:59;;;;;;;13.23;6.90;;;2.80;99.90;;;;;;4983631;28;20034;-80
2022/01/29 04:06:26;;;;;;;12.38;6.50;;;2.90;99.90;;;;;;4983643;28;20019;-81
2022/01/29 04:08:52;;;;;;;13.23;7.00;;;3.00;99.90;;;;;;4967144;28;20114;-80
2022/01/29 04:11:18;;;;;;;13.32;6.95;;;3.00;99.90;;;;;;4967921;28;20225;-81
2022/01/29 04:13:47;;;;;;;12.95;7.22;;;3.00;99.90;;;;;;4984829;28;20428;-80
2022/01/29 04:16:13;;;;;;;;;;;3.00;99.90;;;;;;4987228;28;20023;-79
2022/01/29 04:18:40;;;;;;;13.75;7.10;;;3.00;99.90;;;;;;4979921;28;19913;-79
2022/01/29 04:21:06;;;;;;;11.15;6.65;;;2.90;99.90;;;;;;4983076;28;20317;-80
2022/01/29 04:23:33;;;;;;;12.68;7.00;;;3.00;99.90;;;;;;4983315;28;20038;-80
2022/01/29 04:26:00;;;;;;;15.02;7.97;;;3.00;99.90;;;;;;4983884;28;20079;-79
2022/01/29 04:28:31;;;;;;;16.15;8.32;;;3.00;99.90;;;;;;4983320;28;20061;-79
2022/01/29 04:31:01;;;;;;;16.27;7.68;;;3.00;99.90;;;;;;4983813;28;20031;-79
2022/01/29 04:33:30;;;;;;;14.75;7.53;;;3.00;99.90;;;;;;4983359;28;20050;-80
2022/01/29 04:35:58;;;;;;;15.73;7.63;;;2.90;99.90;;;;;;4982806;28;20113;-80
2022/01/29 04:38:25;;;;;;;17.20;8.60;;;2.90;99.90;;;;;;4984065;28;20127;-80
2022/01/29 04:40:55;;;;;;;13.13;7.43;;;2.80;99.90;;;;;;4980881;28;20054;-78
2022/01/29 04:43:21;;;;;;;13.98;8.23;;;2.80;99.90;;;;;;4985648;28;20027;-80
2022/01/29 04:45:47;;;;;;;12.70;7.90;;;2.80;99.90;;;;;;4983142;28;20027;-79
2022/01/29 04:48:13;;;;;;;16.35;7.93;;;2.80;99.90;;;;;;4982391;28;20045;-80
2022/01/29 04:50:39;;;;;;;13.82;7.85;;;2.80;99.90;;;;;;4983740;28;20018;-80
2022/01/29 04:53:05;;;;;;;13.95;7.45;;;2.80;99.90;;;;;;4982224;28;20041;-80
2022/01/29 04:55:32;;;;;;;15.70;7.82;;;2.80;99.90;;;;;;4982643;28;20056;-80
2022/01/29 04:57:58;;;;;;;14.77;8.07;;;2.80;99.90;;;;;;4983522;28;20106;-79
2022/01/29 05:00:24;;;;;;;16.45;8.38;;;2.80;99.90;;;;;;4966940;28;20019;-81
2022/01/29 05:02:52;;;;;;;12.65;7.82;;;2.80;99.90;;;;;;4983984;28;20033;-79
2022/01/29 05:05:18;;;;;;;11.68;7.28;;;2.80;99.90;;;;;;4972395;28;20049;-77
2022/01/29 05:07:44;;;;;;;14.35;7.63;;;2.80;99.90;;;;;;4973810;28;20038;-78
2022/01/29 05:10:10;;;;;;;15.20;8.50;;;2.80;99.90;;;;;;4970307;28;20066;-79
2022/01/29 05:12:57;;;;;;;14.52;8.30;;;2.80;99.90;;;;;;4983082;28;20145;-80
2022/01/29 05:28:55;;;;;;;14.27;7.85;;;2.80;99.90;;;;;;4982996;28;20388;-80
2022/01/29 05:31:21;;;;;;;12.60;6.95;;;2.80;99.90;;;;;;4983575;28;20062;-80
2022/01/29 05:33:46;;;;;;;12.30;7.60;;;2.80;99.90;;;;;;4983851;28;20069;-79
2022/01/29 05:36:12;;;;;;;13.10;7.28;;;2.80;99.90;;;;;;4982004;28;20340;-79
2022/01/29 05:38:38;;;;;;;13.38;7.60;;;2.80;99.90;;;;;;4982661;28;20121;-79
2022/01/29 05:41:04;;;;;;;15.30;8.02;;;2.80;99.90;;;;;;4979137;28;20106;-78
2022/01/29 05:43:30;;;;;;;12.73;7.85;;;2.90;99.90;;;;;;4983333;28;20321;-79
2022/01/29 05:45:56;;;;;;;13.18;7.53;;;2.80;99.90;;;;;;4983129;28;20195;-81
2022/01/29 05:48:22;;;;;;;12.60;7.07;;;2.90;99.90;;;;;;4982186;28;20041;-80
2022/01/29 05:50:47;;;;;;;15.57;7.90;;;2.90;99.90;;;;;;4983528;28;20062;-81
2022/01/29 05:53:13;;;;;;;16.13;9.50;;;2.90;99.90;;;;;;4982593;28;20030;-81
2022/01/29 05:55:39;;;;;;;17.30;9.35;;;3.00;99.90;;;;;;4966417;28;20030;-79
2022/01/29 05:58:05;;;;;;;16.52;9.52;;;3.00;99.90;;;;;;4981491;28;20098;-79
2022/01/29 06:00:31;;;;;;;18.90;9.93;;;2.90;99.90;;;;;;4966289;28;20047;-81
2022/01/29 06:03:10;;;;;;;18.60;10.60;;;2.90;99.90;;;;;;4975683;28;20023;-79
2022/01/29 06:05:36;;;;;;;17.58;10.38;;;2.90;99.90;;;;;;4982015;28;20025;-82
2022/01/29 06:08:02;;;;;;;20.45;11.27;;;2.80;99.90;;;;;;4981787;28;20098;-80
2022/01/29 06:10:28;;;;;;;19.35;11.20;;;2.80;99.90;;;;;;4982239;28;20126;-80
2022/01/29 06:12:58;;;;;;;22.20;11.48;;;2.80;99.90;;;;;;4982767;28;20038;-79
2022/01/29 06:15:24;;;;;;;20.55;11.65;;;2.80;99.90;;;;;;4966323;28;20197;-80
2022/01/29 06:17:50;;;;;;;19.25;11.23;;;2.80;99.90;;;;;;4984756;28;20325;-79
2022/01/29 06:20:16;;;;;;;21.38;12.75;;;2.80;99.90;;;;;;4982751;28;20098;-78
2022/01/29 06:22:42;;;;;;;19.90;11.80;;;2.70;99.90;;;;;;4977771;28;20019;-80
2022/01/29 06:25:08;;;;;;;22.52;12.48;;;2.70;99.90;;;;;;4982695;28;20019;-81
2022/01/29 06:27:34;;;;;;;23.15;12.38;;;2.70;99.90;;;;;;4983112;28;20039;-81
2022/01/29 06:30:00;;;;;;;19.75;11.65;;;2.70;99.90;;;;;;4983281;28;20034;-79
2022/01/29 06:32:26;;;;;;;20.83;12.10;;;2.70;99.90;;;;;;4969013;28;20038;-80
2022/01/29 06:34:52;;;;;;;21.80;12.13;;;2.80;99.90;;;;;;4985734;28;20033;-79
2022/01/29 06:37:17;;;;;;;19.90;12.43;;;2.80;99.90;;;;;;4986703;28;20321;-80
2022/01/29 06:39:43;;;;;;;22.63;12.52;;;2.90;99.90;;;;;;4986350;28;20049;-81
2022/01/29 06:42:10;;;;;;;19.55;12.00;;;2.80;99.90;;;;;;4986149;28;20097;-79
2022/01/29 06:44:36;;;;;;;20.73;11.02;;;2.80;99.90;;;;;;4984148;28;20329;-80
2022/01/29 06:47:01;;;;;;;20.63;11.93;;;2.90;99.90;;;;;;4983887;28;20097;-81
2022/01/29 06:49:27;;;;;;;20.95;12.70;;;2.80;99.90;;;;;;4987473;28;20213;-80
2022/01/29 06:51:53;;;;;;;22.10;11.93;;;2.80;99.90;;;;;;4969039;28;20340;-79
2022/01/29 06:54:19;;;;;;;19.35;11.70;;;2.80;99.90;;;;;;4968538;28;20035;-80
2022/01/29 06:56:45;;;;;;;22.00;12.45;;;2.80;99.90;;;;;;4985842;28;20121;-79
2022/01/29 06:59:11;;;;;;;19.20;11.95;;;2.80;99.90;;;;;;4984179;28;20246;-79
2022/01/29 07:01:37;;;;;;;22.15;12.13;;;2.80;99.90;;;;;;4984200;28;20038;-80
2022/01/29 07:04:03;;;;;;;20.67;11.50;;;2.80;99.90;;;;;;4981364;28;20035;-79
2022/01/29 07:06:29;;;;;;;20.08;11.43;;;2.80;99.90;;;;;;4985530;28;20038;-79
2022/01/29 07:08:55;;;;;;;18.73;11.55;;;2.80;99.90;;;;;;4982272;28;20114;-80
2022/01/29 07:11:23;;;;;;;23.83;11.73;;;2.80;99.90;;;;;;4965838;29;20229;-78
2022/01/29 07:13:51;;;;;;;24.98;13.27;;;2.80;99.90;;;;;;4949690;29;20051;-79
2022/01/29 07:16:17;;;;;;;;;;;2.90;99.90;;;;;;4966226;28;20046;-77
2022/01/29 07:18:43;;;;;;;18.58;10.68;;;2.90;99.90;;;;;;4948983;29;19902;-78
2022/01/29 07:21:09;;;;;;;18.45;11.63;;;3.00;99.90;;;;;;4965181;29;20318;-79
2022/01/29 07:23:35;;;;;;;18.85;11.48;;;3.00;99.90;;;;;;4966124;29;20049;-78
2022/01/29 07:26:00;;;;;;;19.83;11.50;;;3.00;99.90;;;;;;4944495;29;20043;-79
2022/01/29 07:28:26;;;;;;;19.40;11.05;;;3.10;99.90;;;;;;4949060;29;20042;-79
2022/01/29 07:30:52;;;;;;;20.67;11.10;;;3.10;99.90;;;;;;4944511;29;20157;-78
2022/01/29 07:33:18;;;;;;;16.98;9.77;;;3.10;99.90;;;;;;4938642;29;20046;-79
2022/01/29 07:35:43;;;;;;;16.42;10.38;;;3.10;99.90;;;;;;4914139;29;20074;-79
2022/01/29 07:38:09;;;;;;;16.13;9.70;;;3.20;99.90;;;;;;4945059;29;20365;-79
2022/01/29 07:40:35;;;;;;;19.83;8.98;;;3.20;99.90;;;;;;4965726;28;20034;-79
2022/01/29 07:43:00;;;;;;;16.02;8.23;;;3.20;99.90;;;;;;4948440;29;20287;-80
2022/01/29 07:45:26;;;;;;;16.83;8.30;;;3.30;99.90;;;;;;4948142;29;20051;-81
2022/01/29 07:47:52;;;;;;;14.82;8.77;;;3.40;99.90;;;;;;4948379;29;20074;-80
2022/01/29 07:50:18;;;;;;;18.48;10.43;;;3.50;99.90;;;;;;4932145;29;20024;-83
2022/01/29 07:52:43;;;;;;;16.35;9.15;;;3.50;99.90;;;;;;4913621;29;20254;-81
2022/01/29 07:55:09;;;;;;;16.02;9.10;;;3.50;99.90;;;;;;4945741;29;20023;-80
2022/01/29 07:57:35;;;;;;;14.75;8.10;;;3.60;99.90;;;;;;4913655;29;20179;-83
2022/01/29 08:00:04;;;;;;;14.57;8.23;;;3.60;99.90;;;;;;4928247;29;20107;-80
2022/01/29 08:02:39;;;;;;;16.60;8.40;;;3.60;99.90;;;;;;4930537;29;20326;-82
2022/01/29 08:05:05;;;;;;;13.35;7.32;;;3.70;99.90;;;;;;4928608;29;20046;-83
2022/01/29 08:07:31;;;;;;;14.18;7.68;;;3.80;99.90;;;;;;4913772;29;20369;-81
2022/01/29 08:09:57;;;;;;;12.10;7.47;;;3.90;99.90;;;;;;4953760;28;20047;-79
2022/01/29 08:12:22;;;;;;;13.57;6.78;;;4.00;99.90;;;;;;4965378;29;20102;-80
2022/01/29 08:14:48;;;;;;;8.85;5.57;;;4.10;99.90;;;;;;4948403;29;20035;-79
2022/01/29 08:17:14;;;;;;;6.75;3.35;;;4.10;99.90;;;;;;4922337;29;20046;-79
2022/01/29 08:19:39;;;;;;;3.83;2.47;;;4.20;99.90;;;;;;4964886;29;20019;-79
2022/01/29 08:22:05;;;;;;;5.10;2.80;;;4.40;99.90;;;;;;4964445;29;20046;-81
2022/01/29 08:24:31;;;;;;;6.00;2.42;;;4.50;99.90;;;;;;4932304;29;20076;-80
2022/01/29 08:26:57;;;;;;;4.30;2.10;;;4.60;99.90;;;;;;4961405;29;20034;-80
2022/01/29 08:29:23;;;;;;;4.25;2.58;;;4.70;99.90;;;;;;4969528;28;20038;-81
2022/01/29 08:31:48;;;;;;;4.70;2.50;;;4.70;99.90;;;;;;4967521;28;20053;-77
2022/01/29 08:34:14;;;;;;;4.20;2.20;;;4.90;99.90;;;;;;4969388;29;20039;-77
2022/01/29 08:36:40;;;;;;;5.32;2.40;;;5.00;99.90;;;;;;4964519;29;20099;-78
2022/01/29 08:39:06;;;;;;;5.78;2.58;;;5.10;99.90;;;;;;4963227;29;20031;-80
2022/01/29 08:41:32;;;;;;;5.28;2.80;;;5.20;99.90;;;;;;4966257;29;20356;-80
2022/01/29 08:43:58;;;;;;;6.80;2.80;;;5.30;99.90;;;;;;4963814;29;20019;-79
2022/01/29 08:46:23;;;;;;;6.28;2.90;;;5.40;99.90;;;;;;4956483;28;20037;-79
2022/01/29 08:48:50;;;;;;;5.97;2.55;;;5.30;99.90;;;;;;4947994;29;20031;-78
2022/01/29 08:51:16;;;;;;;5.07;2.90;;;5.50;99.90;;;;;;4955378;29;20031;-77
2022/01/29 08:53:42;;;;;;;4.75;2.45;;;5.60;99.90;;;;;;4946803;29;20082;-78
2022/01/29 08:56:07;;;;;;;5.07;2.88;;;5.50;99.90;;;;;;4964075;28;20023;-80
2022/01/29 08:58:33;;;;;;;5.00;2.55;;;5.60;99.90;;;;;;4947721;29;20333;-78
2022/01/29 09:24:28;;;;;;;5.15;2.72;;;5.90;99.90;;;;;;4893725;29;20300;-77
2022/01/29 09:27:28;;;;;;;7.75;3.45;;;6.10;99.90;;;;;;4898177;29;20314;-78
2022/01/29 09:29:56;;;;;;;5.45;3.25;;;6.10;99.90;;;;;;4946686;28;20049;-79
2022/01/29 09:32:25;;;;;;;6.93;3.30;;;6.10;99.90;;;;;;4976803;28;20039;-79
2022/01/29 09:34:52;;;;;;;4.85;2.88;;;6.30;99.90;;;;;;4982414;28;20187;-81
2022/01/29 09:37:22;;;;;;;5.97;3.25;;;6.30;99.90;;;;;;4982162;28;20038;-78
2022/01/29 09:40:00;;;;;;;5.93;3.45;;;6.40;99.90;;;;;;4968768;28;20037;-80
2022/01/29 09:42:26;;;;;;;6.35;3.15;;;6.90;99.90;;;;;;4980255;28;20089;-78
2022/01/29 09:44:52;;;;;;;5.80;3.00;;;7.00;99.90;;;;;;4981747;28;20059;-80
2022/01/29 09:47:22;;;;;;;5.68;3.08;;;7.20;99.90;;;;;;4981537;28;20050;-78
2022/01/29 09:49:48;;;;;;;7.93;3.72;;;7.60;99.90;;;;;;4984035;28;20043;-80
2022/01/29 09:52:15;;;;;;;5.35;3.20;;;7.60;99.90;;;;;;4981208;28;20102;-79
2022/01/29 09:54:45;;;;;;;5.47;3.15;;;7.50;99.90;;;;;;4965412;28;20056;-80
2022/01/29 09:57:11;;;;;;;7.20;3.30;;;7.50;99.90;;;;;;4983182;28;20026;-79
2022/01/29 09:59:38;;;;;;;5.55;2.70;;;7.50;99.90;;;;;;4982686;28;20019;-80
2022/01/29 10:02:12;;;;;;;5.35;2.92;;;7.40;99.90;;;;;;4981516;28;20042;-79
2022/01/29 10:05:05;;;;;;;5.72;3.10;;;7.40;99.90;;;;;;4983096;28;20038;-78
2022/01/29 10:07:32;;;;;;;5.55;2.90;;;8.10;99.90;;;;;;4967611;28;20295;-80
2022/01/29 10:10:00;;;;;;;6.43;3.13;;;8.10;99.90;;;;;;4985300;28;20112;-79
2022/01/29 10:12:31;;;;;;;5.93;3.13;;;8.00;99.90;;;;;;4986354;28;20050;-80
2022/01/29 10:15:07;;;;;;;5.50;3.22;;;7.80;99.90;;;;;;4969455;28;20317;-79
2022/01/29 10:17:56;;;;;;;7.25;3.42;;;7.50;99.90;;;;;;4982577;28;20039;-79
2022/01/29 10:20:29;;;;;;;8.32;3.03;;;7.40;99.90;;;;;;4986608;28;20209;-78
2022/01/29 10:23:07;;;;;;;5.63;3.10;;;7.30;99.90;;;;;;4986099;28;20260;-79
2022/01/29 10:25:36;;;;;;;6.18;3.03;;;7.60;99.90;;;;;;4985050;28;20202;-79
2022/01/29 10:28:21;;;;;;;5.53;2.70;;;7.90;99.90;;;;;;4986818;28;20061;-78
2022/01/29 10:30:51;;;;;;;7.32;3.17;;;7.70;99.90;;;;;;4984654;28;20053;-78
2022/01/29 10:33:31;;;;;;;5.35;2.90;;;7.90;99.90;;;;;;4986044;28;20039;-80
2022/01/29 10:35:59;;;;;;;7.97;3.13;;;7.90;99.90;;;;;;4965880;28;20058;-78
2022/01/29 10:38:40;;;;;;;6.90;3.30;;;7.80;99.90;;;;;;4951809;28;20031;-77
2022/01/29 10:41:18;;;;;;;5.82;2.72;;;7.90;99.90;;;;;;4985503;28;20127;-78
2022/01/29 10:44:18;;;;;;;5.57;3.47;;;7.90;99.90;;;;;;5018211;28;20034;-79
2022/01/29 10:46:55;;;;;;;5.03;3.03;;;7.80;99.90;;;;;;4998793;28;20337;-78
2022/01/29 10:49:31;;;;;;;6.25;3.22;;;7.80;99.90;;;;;;4963690;28;20077;-79
2022/01/29 10:52:06;;;;;;;6.05;3.30;;;7.90;99.90;;;;;;4984787;28;20035;-77
2022/01/29 10:54:43;;;;;;;5.88;2.90;;;8.00;99.90;;;;;;4984984;28;20239;-77
2022/01/29 10:57:11;;;;;;;4.70;2.83;;;8.10;99.90;;;;;;4979635;28;20102;-78
2022/01/29 10:59:46;;;;;;;5.10;3.10;;;8.20;99.90;;;;;;4984734;28;20026;-77
2022/01/29 11:02:14;;;;;;;5.05;2.50;;;8.20;99.90;;;;;;4985232;28;20310;-78
2022/01/29 11:04:41;;;;;;;5.97;2.90;;;8.20;99.90;;;;;;4985298;28;20034;-77
2022/01/29 11:07:15;;;;;;;5.40;2.50;;;8.20;99.90;;;;;;4984783;28;20534;-80
2022/01/29 11:09:43;;;;;;;4.55;2.22;;;8.30;99.90;;;;;;4979557;28;20070;-80
2022/01/29 11:12:11;;;;;;;4.13;2.15;;;8.50;99.90;;;;;;4965520;29;20039;-77
2022/01/29 11:14:37;;;;;;;4.45;2.03;;;8.60;99.90;;;;;;4965900;29;20131;-80
2022/01/29 11:17:04;;;;;;;4.22;2.05;;;8.40;99.90;;;;;;4975522;28;20031;-77
2022/01/29 11:19:32;;;;;;;4.57;2.50;;;8.30;99.90;;;;;;4968327;28;20034;-78
2022/01/29 11:22:02;;;;;;;;;;;8.40;99.90;;;;;;4985123;28;20241;-80
2022/01/29 11:25:07;;;;;;;3.70;2.00;;;8.40;99.90;;;;;;4983036;28;20021;-79
2022/01/29 11:27:37;;;;;;;4.30;2.00;;;8.50;99.90;;;;;;4963116;29;20038;-80
2022/01/29 11:30:09;;;;;;;4.07;1.75;;;8.70;99.90;;;;;;4932255;28;20077;-79
2022/01/29 11:32:39;;;;;;;3.55;1.73;;;8.60;99.90;;;;;;4946057;29;20039;-79
2022/01/29 11:35:07;;;;;;;3.90;1.65;;;8.30;99.90;;;;;;4965725;29;20174;-80
2022/01/29 11:37:37;;;;;;;;;;;8.10;99.90;;;;;;4948368;29;20090;-78
2022/01/29 11:40:28;;;;;;;4.72;1.95;;;8.20;99.90;;;;;;4935273;29;20236;-78
2022/01/29 11:43:25;;;;;;;4.95;1.63;;;8.20;99.90;;;;;;4964444;29;20031;-78
2022/01/29 11:46:07;;;;;;;3.50;1.65;;;8.10;99.90;;;;;;4945980;29;20114;-78
2022/01/29 11:48:54;;;;;;;2.80;1.30;;;8.10;99.90;;;;;;4963642;29;20066;-79
2022/01/29 11:51:47;;;;;;;3.17;1.60;;;8.00;99.90;;;;;;4949625;29;20118;-78
2022/01/29 11:58:21;;;;;;;3.25;1.50;;;7.90;99.90;;;;;;4947155;29;20301;-79
2022/01/29 12:00:58;;;;;;;4.57;1.70;;;8.00;99.90;;;;;;4964765;29;20070;-80
2022/01/29 12:03:38;;;;;;;2.97;1.50;;;8.20;99.90;;;;;;4965338;29;20070;-77
2022/01/29 12:06:24;;;;;;;4.07;1.90;;;8.20;99.90;;;;;;4960413;29;20250;-78
2022/01/29 12:09:21;;;;;;;4.53;1.70;;;8.10;99.90;;;;;;4951012;29;20050;-80
2022/01/29 12:12:17;;;;;;;3.83;1.55;;;8.10;99.90;;;;;;4947539;29;20047;-78
2022/01/29 12:14:44;;;;;;;3.30;1.50;;;8.10;99.90;;;;;;4929743;29;20036;-78
2022/01/29 12:17:11;;;;;;;2.85;1.67;;;8.00;99.90;;;;;;4928931;29;20047;-80
2022/01/29 12:19:40;;;;;;;2.80;1.38;;;8.00;99.90;;;;;;4946414;29;20499;-79
2022/01/29 12:22:20;;;;;;;3.90;1.48;;;8.10;99.90;;;;;;4965720;29;20023;-79
2022/01/29 12:24:53;;;;;;;3.70;1.55;;;8.00;99.90;;;;;;4965191;29;20258;-80
2022/01/29 12:27:21;;;;;;;2.95;1.50;;;7.90;99.90;;;;;;4946033;28;20303;-79
2022/01/29 12:29:48;;;;;;;3.25;1.30;;;8.00;99.90;;;;;;4929663;29;20031;-80
2022/01/29 12:32:14;;;;;;;4.72;1.80;;;8.10;99.90;;;;;;4928987;29;20089;-79
2022/01/29 12:34:41;;;;;;;3.78;1.27;;;8.10;99.90;;;;;;4945749;29;20023;-81
2022/01/29 12:37:20;;;;;;;2.97;1.40;;;8.00;99.90;;;;;;4914226;29;20024;-79
2022/01/29 12:39:49;;;;;;;3.42;1.67;;;8.10;99.90;;;;;;4932449;29;20318;-81
2022/01/29 12:44:53;;;;;;;4.03;1.55;;;7.90;99.90;;;;;;4944087;29;20062;-78
2022/01/29 12:47:27;;;;;;;;;;;8.20;99.90;;;;;;4946430;28;20157;-80
2022/01/29 12:49:53;;;;;;;3.50;1.70;;;8.30;99.90;;;;;;4947939;29;19914;-80
2022/01/29 12:52:21;;;;;;;11.07;2.50;;;8.70;99.90;;;;;;4945556;29;20092;-79
2022/01/29 12:54:55;;;;;;;3.22;1.50;;;8.60;99.90;;;;;;4964699;28;20074;-81
2022/01/29 12:57:21;;;;;;;3.88;1.58;;;8.60;99.90;;;;;;4947357;29;20078;-79
2022/01/29 12:59:50;;;;;;;3.50;1.38;;;8.60;99.90;;;;;;4946273;29;20334;-80
2022/01/29 13:02:16;;;;;;;3.35;1.23;;;8.30;99.90;;;;;;4947678;29;20062;-80
2022/01/29 13:04:46;;;;;;;3.10;1.25;;;8.10;99.90;;;;;;4964974;29;20314;-82
2022/01/29 13:07:13;;;;;;;6.57;1.85;;;8.00;99.90;;;;;;4948397;29;20333;-80
2022/01/29 13:09:40;;;;;;;4.18;1.92;;;8.00;99.90;;;;;;4947218;29;20026;-80
2022/01/29 13:12:08;;;;;;;4.60;2.03;;;7.80;99.90;;;;;;4947996;29;20106;-80
2022/01/29 13:14:34;;;;;;;6.97;2.63;;;7.80;99.90;;;;;;4965286;29;20082;-79
2022/01/29 13:17:09;;;;;;;2.83;1.42;;;7.80;99.90;;;;;;4947167;29;20039;-81
2022/01/29 13:19:36;;;;;;;4.03;1.20;;;7.80;99.90;;;;;;4947203;29;20230;-80
2022/01/29 13:22:07;;;;;;;2.17;1.10;;;7.80;99.90;;;;;;4947041;29;20110;-81
2022/01/29 13:24:43;;;;;;;3.45;1.55;;;7.80;99.90;;;;;;4964409;29;20083;-79
2022/01/29 13:27:19;;;;;;;4.18;1.70;;;7.70;99.90;;;;;;4977496;28;20272;-79
2022/01/29 13:33:20;;;;;;;4.43;1.40;;;7.60;99.90;;;;;;4981967;28;20035;-80
2022/01/29 13:35:53;;;;;;;4.63;1.70;;;7.50;99.90;;;;;;4984027;28;20323;-80
2022/01/29 13:38:28;;;;;;;5.68;1.92;;;7.50;99.90;;;;;;4983057;28;20035;-78
2022/01/29 13:40:59;;;;;;;5.07;1.98;;;7.40;99.90;;;;;;4983631;28;20035;-80
2022/01/29 13:43:28;;;;;;;4.70;1.70;;;7.40;99.90;;;;;;4968322;29;20332;-78
2022/01/29 13:46:00;;;;;;;4.38;1.90;;;7.30;99.90;;;;;;4967714;28;20039;-79